sensor_id;sensor_type;location;lat;lon;timestamp;temperature;humidity
14471;DHT22;7321;50.802;4.336;2022-09-03T00:02:01;22.00;99.90
14471;DHT22;7321;50.802;4.336;2022-09-03T00:07:43;22.00;99.90
14471;DHT22;7321;50.802;4.336;2022-09-03T00:10:27;22.10;99.90
14471;DHT22;7321;50.802;4.336;2022-09-03T00:12:56;22.10;99.90
14471;DHT22;7321;50.802;4.336;2022-09-03T00:15:25;22.30;99.90
14471;DHT22;7321;50.802;4.336;2022-09-03T00:17:54;22.40;99.90
14471;DHT22;7321;50.802;4.336;2022-09-03T00:22:56;22.30;99.90
14471;DHT22;7321;50.802;4.336;2022-09-03T00:25:28;22.30;99.90
14471;DHT22;7321;50.802;4.336;2022-09-03T00:28:01;22.30;99.90
14471;DHT22;7321;50.802;4.336;2022-09-03T00:30:31;22.30;99.90
14471;DHT22;7321;50.802;4.336;2022-09-03T00:33:16;22.40;99.90
14471;DHT22;7321;50.802;4.336;2022-09-03T00:38:28;22.30;99.90
14471;DHT22;7321;50.802;4.336;2022-09-03T00:43:58;22.20;99.90
14471;DHT22;7321;50.802;4.336;2022-09-03T00:46:35;22.30;99.90
14471;DHT22;7321;50.802;4.336;2022-09-03T00:55:02;22.10;99.90
14471;DHT22;7321;50.802;4.336;2022-09-03T01:00:16;22.10;99.90
14471;DHT22;7321;50.802;4.336;2022-09-03T01:11:16;22.10;99.90
14471;DHT22;7321;50.802;4.336;2022-09-03T01:17:07;22.00;99.90
14471;DHT22;7321;50.802;4.336;2022-09-03T01:20:01;21.90;99.90
14471;DHT22;7321;50.802;4.336;2022-09-03T01:39:28;22.10;99.90
14471;DHT22;7321;50.802;4.336;2022-09-03T01:45:15;22.10;99.90
14471;DHT22;7321;50.802;4.336;2022-09-03T01:53:40;21.90;99.90
14471;DHT22;7321;50.802;4.336;2022-09-03T01:56:28;21.90;99.90
14471;DHT22;7321;50.802;4.336;2022-09-03T02:01:45;21.90;99.90
14471;DHT22;7321;50.802;4.336;2022-09-03T02:04:23;21.80;99.90
14471;DHT22;7321;50.802;4.336;2022-09-03T02:06:54;21.90;99.90
14471;DHT22;7321;50.802;4.336;2022-09-03T02:09:20;22.00;99.90
14471;DHT22;7321;50.802;4.336;2022-09-03T02:11:53;21.90;99.90
14471;DHT22;7321;50.802;4.336;2022-09-03T02:14:19;21.80;99.90
14471;DHT22;7321;50.802;4.336;2022-09-03T02:16:45;21.80;99.90
14471;DHT22;7321;50.802;4.336;2022-09-03T02:19:14;21.70;99.90
14471;DHT22;7321;50.802;4.336;2022-09-03T02:21:52;21.80;99.90
14471;DHT22;7321;50.802;4.336;2022-09-03T02:24:19;21.80;99.90
14471;DHT22;7321;50.802;4.336;2022-09-03T02:26:45;21.80;99.90
14471;DHT22;7321;50.802;4.336;2022-09-03T02:29:13;21.90;99.90
14471;DHT22;7321;50.802;4.336;2022-09-03T02:31:39;21.80;99.90
14471;DHT22;7321;50.802;4.336;2022-09-03T02:34:05;21.80;99.90
14471;DHT22;7321;50.802;4.336;2022-09-03T02:36:37;21.90;99.90
14471;DHT22;7321;50.802;4.336;2022-09-03T02:39:04;21.90;99.90
14471;DHT22;7321;50.802;4.336;2022-09-03T02:41:30;22.00;99.90
14471;DHT22;7321;50.802;4.336;2022-09-03T02:44:16;22.10;99.90
14471;DHT22;7321;50.802;4.336;2022-09-03T02:46:51;22.10;99.90
14471;DHT22;7321;50.802;4.336;2022-09-03T02:49:18;22.10;99.90
14471;DHT22;7321;50.802;4.336;2022-09-03T02:51:44;22.00;99.90
14471;DHT22;7321;50.802;4.336;2022-09-03T02:54:11;22.00;99.90
14471;DHT22;7321;50.802;4.336;2022-09-03T02:56:37;22.00;99.90
14471;DHT22;7321;50.802;4.336;2022-09-03T02:59:05;22.00;99.90
14471;DHT22;7321;50.802;4.336;2022-09-03T03:01:32;22.00;99.90
14471;DHT22;7321;50.802;4.336;2022-09-03T03:03:58;22.00;99.90
14471;DHT22;7321;50.802;4.336;2022-09-03T03:06:24;22.10;99.90
14471;DHT22;7321;50.802;4.336;2022-09-03T03:08:50;22.20;99.90
14471;DHT22;7321;50.802;4.336;2022-09-03T03:11:17;22.20;99.90
14471;DHT22;7321;50.802;4.336;2022-09-03T03:13:46;22.20;99.90
14471;DHT22;7321;50.802;4.336;2022-09-03T03:16:14;22.20;99.90
14471;DHT22;7321;50.802;4.336;2022-09-03T03:18:40;22.20;99.90
14471;DHT22;7321;50.802;4.336;2022-09-03T03:21:12;22.20;99.90
14471;DHT22;7321;50.802;4.336;2022-09-03T03:23:38;22.20;99.90
14471;DHT22;7321;50.802;4.336;2022-09-03T03:26:06;22.10;99.90
14471;DHT22;7321;50.802;4.336;2022-09-03T03:28:34;22.20;99.90
14471;DHT22;7321;50.802;4.336;2022-09-03T03:31:12;22.10;99.90
14471;DHT22;7321;50.802;4.336;2022-09-03T03:33:39;22.10;99.90
14471;DHT22;7321;50.802;4.336;2022-09-03T03:36:10;22.00;99.90
14471;DHT22;7321;50.802;4.336;2022-09-03T03:38:36;22.00;99.90
14471;DHT22;7321;50.802;4.336;2022-09-03T03:41:26;22.00;99.90
14471;DHT22;7321;50.802;4.336;2022-09-03T03:43:53;22.00;99.90
14471;DHT22;7321;50.802;4.336;2022-09-03T03:46:20;22.00;99.90
14471;DHT22;7321;50.802;4.336;2022-09-03T03:48:48;21.90;99.90
14471;DHT22;7321;50.802;4.336;2022-09-03T03:51:14;22.00;99.90
14471;DHT22;7321;50.802;4.336;2022-09-03T03:53:40;21.90;99.90
14471;DHT22;7321;50.802;4.336;2022-09-03T03:56:08;21.90;99.90
14471;DHT22;7321;50.802;4.336;2022-09-03T03:58:38;21.90;99.90
14471;DHT22;7321;50.802;4.336;2022-09-03T04:01:13;21.80;99.90
14471;DHT22;7321;50.802;4.336;2022-09-03T04:03:39;21.70;99.90
14471;DHT22;7321;50.802;4.336;2022-09-03T04:06:06;21.70;99.90
14471;DHT22;7321;50.802;4.336;2022-09-03T04:08:37;21.80;99.90
14471;DHT22;7321;50.802;4.336;2022-09-03T04:11:04;21.50;99.90
14471;DHT22;7321;50.802;4.336;2022-09-03T04:13:32;21.40;99.90
14471;DHT22;7321;50.802;4.336;2022-09-03T04:16:08;21.40;99.90
14471;DHT22;7321;50.802;4.336;2022-09-03T04:18:35;21.50;99.90
14471;DHT22;7321;50.802;4.336;2022-09-03T04:21:05;21.50;99.90
14471;DHT22;7321;50.802;4.336;2022-09-03T04:23:36;21.60;99.90
14471;DHT22;7321;50.802;4.336;2022-09-03T04:26:03;21.50;99.90
14471;DHT22;7321;50.802;4.336;2022-09-03T04:28:30;21.50;99.90
14471;DHT22;7321;50.802;4.336;2022-09-03T04:31:00;21.40;99.90
14471;DHT22;7321;50.802;4.336;2022-09-03T04:33:27;21.40;99.90
14471;DHT22;7321;50.802;4.336;2022-09-03T04:36:02;21.40;99.90
14471;DHT22;7321;50.802;4.336;2022-09-03T04:38:28;21.40;99.90
14471;DHT22;7321;50.802;4.336;2022-09-03T04:40:54;21.30;99.90
14471;DHT22;7321;50.802;4.336;2022-09-03T04:43:20;21.30;99.90
14471;DHT22;7321;50.802;4.336;2022-09-03T04:45:46;21.30;99.90
14471;DHT22;7321;50.802;4.336;2022-09-03T04:48:12;21.40;99.90
14471;DHT22;7321;50.802;4.336;2022-09-03T04:50:38;21.30;99.90
14471;DHT22;7321;50.802;4.336;2022-09-03T04:53:04;21.40;99.90
14471;DHT22;7321;50.802;4.336;2022-09-03T04:55:34;21.30;99.90
14471;DHT22;7321;50.802;4.336;2022-09-03T04:58:00;21.10;99.90
14471;DHT22;7321;50.802;4.336;2022-09-03T05:00:26;21.10;99.90
14471;DHT22;7321;50.802;4.336;2022-09-03T05:02:52;21.20;99.90
14471;DHT22;7321;50.802;4.336;2022-09-03T05:05:20;21.20;99.90
14471;DHT22;7321;50.802;4.336;2022-09-03T05:07:45;21.20;99.90
14471;DHT22;7321;50.802;4.336;2022-09-03T05:10:12;21.20;99.90
14471;DHT22;7321;50.802;4.336;2022-09-03T05:12:46;21.10;99.90
14471;DHT22;7321;50.802;4.336;2022-09-03T05:15:12;21.20;99.90
14471;DHT22;7321;50.802;4.336;2022-09-03T05:17:38;21.20;99.90
14471;DHT22;7321;50.802;4.336;2022-09-03T05:20:07;21.10;99.90
14471;DHT22;7321;50.802;4.336;2022-09-03T05:22:34;21.20;99.90
14471;DHT22;7321;50.802;4.336;2022-09-03T05:25:03;21.10;99.90
14471;DHT22;7321;50.802;4.336;2022-09-03T05:27:30;21.20;99.90
14471;DHT22;7321;50.802;4.336;2022-09-03T05:29:56;21.20;99.90
14471;DHT22;7321;50.802;4.336;2022-09-03T05:32:22;21.20;99.90
14471;DHT22;7321;50.802;4.336;2022-09-03T05:34:49;21.20;99.90
14471;DHT22;7321;50.802;4.336;2022-09-03T05:37:15;21.30;99.90
14471;DHT22;7321;50.802;4.336;2022-09-03T05:39:41;21.40;99.90
14471;DHT22;7321;50.802;4.336;2022-09-03T05:42:07;21.50;99.90
14471;DHT22;7321;50.802;4.336;2022-09-03T05:44:32;21.50;99.90
14471;DHT22;7321;50.802;4.336;2022-09-03T05:46:59;21.50;99.90
14471;DHT22;7321;50.802;4.336;2022-09-03T05:49:24;21.50;99.90
14471;DHT22;7321;50.802;4.336;2022-09-03T05:51:50;21.50;99.90
14471;DHT22;7321;50.802;4.336;2022-09-03T05:54:16;21.60;99.90
14471;DHT22;7321;50.802;4.336;2022-09-03T05:56:41;21.60;99.90
14471;DHT22;7321;50.802;4.336;2022-09-03T05:59:08;21.60;99.90
14471;DHT22;7321;50.802;4.336;2022-09-03T06:01:40;21.60;99.90
14471;DHT22;7321;50.802;4.336;2022-09-03T06:04:14;21.70;99.90
14471;DHT22;7321;50.802;4.336;2022-09-03T06:06:46;21.70;99.90
14471;DHT22;7321;50.802;4.336;2022-09-03T06:09:17;21.70;99.90
14471;DHT22;7321;50.802;4.336;2022-09-03T06:11:45;21.70;99.90
14471;DHT22;7321;50.802;4.336;2022-09-03T06:14:12;21.80;99.90
14471;DHT22;7321;50.802;4.336;2022-09-03T06:16:43;21.80;99.90
14471;DHT22;7321;50.802;4.336;2022-09-03T06:19:10;21.80;99.90
14471;DHT22;7321;50.802;4.336;2022-09-03T06:21:37;21.90;99.90
14471;DHT22;7321;50.802;4.336;2022-09-03T06:24:11;22.00;99.90
14471;DHT22;7321;50.802;4.336;2022-09-03T06:26:38;22.10;99.90
14471;DHT22;7321;50.802;4.336;2022-09-03T06:29:05;22.20;99.90
14471;DHT22;7321;50.802;4.336;2022-09-03T06:31:31;22.10;99.90
14471;DHT22;7321;50.802;4.336;2022-09-03T06:33:57;22.20;99.90
14471;DHT22;7321;50.802;4.336;2022-09-03T06:36:23;22.20;99.90
14471;DHT22;7321;50.802;4.336;2022-09-03T06:38:53;22.20;99.90
14471;DHT22;7321;50.802;4.336;2022-09-03T06:41:20;22.30;99.90
14471;DHT22;7321;50.802;4.336;2022-09-03T06:43:51;22.20;99.90
14471;DHT22;7321;50.802;4.336;2022-09-03T06:46:22;22.20;99.90
14471;DHT22;7321;50.802;4.336;2022-09-03T06:48:48;22.30;99.90
14471;DHT22;7321;50.802;4.336;2022-09-03T06:51:20;22.50;99.90
14471;DHT22;7321;50.802;4.336;2022-09-03T06:53:48;22.60;99.90
14471;DHT22;7321;50.802;4.336;2022-09-03T06:56:18;22.70;99.90
14471;DHT22;7321;50.802;4.336;2022-09-03T06:58:46;22.80;99.90
14471;DHT22;7321;50.802;4.336;2022-09-03T07:01:18;22.90;99.90
14471;DHT22;7321;50.802;4.336;2022-09-03T07:03:45;22.90;99.90
14471;DHT22;7321;50.802;4.336;2022-09-03T07:06:17;23.00;99.90
14471;DHT22;7321;50.802;4.336;2022-09-03T07:08:45;23.00;99.90
14471;DHT22;7321;50.802;4.336;2022-09-03T07:11:13;23.10;99.90
14471;DHT22;7321;50.802;4.336;2022-09-03T07:13:41;23.10;99.90
14471;DHT22;7321;50.802;4.336;2022-09-03T07:18:36;23.10;99.90
14471;DHT22;7321;50.802;4.336;2022-09-03T07:21:06;23.20;99.90
14471;DHT22;7321;50.802;4.336;2022-09-03T07:23:34;23.20;99.90
14471;DHT22;7321;50.802;4.336;2022-09-03T07:26:03;23.20;99.90
14471;DHT22;7321;50.802;4.336;2022-09-03T07:28:30;23.20;99.90
14471;DHT22;7321;50.802;4.336;2022-09-03T07:31:05;23.20;99.90
14471;DHT22;7321;50.802;4.336;2022-09-03T07:33:32;23.20;99.90
14471;DHT22;7321;50.802;4.336;2022-09-03T07:36:05;23.20;99.90
14471;DHT22;7321;50.802;4.336;2022-09-03T07:38:35;23.20;99.90
14471;DHT22;7321;50.802;4.336;2022-09-03T07:41:04;23.10;99.90
14471;DHT22;7321;50.802;4.336;2022-09-03T07:43:39;23.20;99.90
14471;DHT22;7321;50.802;4.336;2022-09-03T07:46:08;23.20;99.90
14471;DHT22;7321;50.802;4.336;2022-09-03T07:48:39;23.30;99.90
14471;DHT22;7321;50.802;4.336;2022-09-03T07:51:05;23.40;99.90
14471;DHT22;7321;50.802;4.336;2022-09-03T07:53:31;23.50;99.90
14471;DHT22;7321;50.802;4.336;2022-09-03T07:56:05;23.50;99.90
14471;DHT22;7321;50.802;4.336;2022-09-03T07:58:32;23.60;99.90
14471;DHT22;7321;50.802;4.336;2022-09-03T08:01:06;23.70;99.90
14471;DHT22;7321;50.802;4.336;2022-09-03T08:03:36;23.70;99.90
14471;DHT22;7321;50.802;4.336;2022-09-03T08:06:05;23.80;99.90
14471;DHT22;7321;50.802;4.336;2022-09-03T08:08:32;23.80;99.90
14471;DHT22;7321;50.802;4.336;2022-09-03T08:11:18;23.80;99.90
14471;DHT22;7321;50.802;4.336;2022-09-03T08:14:03;24.00;99.90
14471;DHT22;7321;50.802;4.336;2022-09-03T08:16:37;24.10;99.90
14471;DHT22;7321;50.802;4.336;2022-09-03T08:19:04;24.30;99.90
14471;DHT22;7321;50.802;4.336;2022-09-03T08:21:31;24.30;99.90
14471;DHT22;7321;50.802;4.336;2022-09-03T08:23:57;24.40;99.90
14471;DHT22;7321;50.802;4.336;2022-09-03T08:26:31;24.50;99.90
14471;DHT22;7321;50.802;4.336;2022-09-03T08:28:57;24.50;99.90
14471;DHT22;7321;50.802;4.336;2022-09-03T08:31:23;24.60;99.90
14471;DHT22;7321;50.802;4.336;2022-09-03T08:33:55;24.50;99.90
14471;DHT22;7321;50.802;4.336;2022-09-03T08:36:23;24.70;99.90
14471;DHT22;7321;50.802;4.336;2022-09-03T08:38:50;24.80;99.90
14471;DHT22;7321;50.802;4.336;2022-09-03T08:41:26;25.00;99.90
14471;DHT22;7321;50.802;4.336;2022-09-03T08:57:49;25.20;99.90
14471;DHT22;7321;50.802;4.336;2022-09-03T09:00:16;25.20;99.90
14471;DHT22;7321;50.802;4.336;2022-09-03T09:03:14;25.20;99.90
14471;DHT22;7321;50.802;4.336;2022-09-03T09:08:39;25.50;99.90
14471;DHT22;7321;50.802;4.336;2022-09-03T09:16:41;25.30;99.90
14471;DHT22;7321;50.802;4.336;2022-09-03T09:21:51;25.30;99.90
14471;DHT22;7321;50.802;4.336;2022-09-03T09:24:23;25.30;99.90
14471;DHT22;7321;50.802;4.336;2022-09-03T09:26:57;25.40;99.90
14471;DHT22;7321;50.802;4.336;2022-09-03T09:29:26;25.40;99.90
14471;DHT22;7321;50.802;4.336;2022-09-03T09:31:54;25.40;99.90
14471;DHT22;7321;50.802;4.336;2022-09-03T09:34:20;25.40;99.90
14471;DHT22;7321;50.802;4.336;2022-09-03T09:36:51;25.30;99.90
14471;DHT22;7321;50.802;4.336;2022-09-03T09:39:18;25.20;99.90
14471;DHT22;7321;50.802;4.336;2022-09-03T09:42:16;25.20;99.90
14471;DHT22;7321;50.802;4.336;2022-09-03T09:44:45;25.40;99.90
14471;DHT22;7321;50.802;4.336;2022-09-03T09:47:29;25.40;99.90
14471;DHT22;7321;50.802;4.336;2022-09-03T09:50:00;25.40;99.90
14471;DHT22;7321;50.802;4.336;2022-09-03T09:52:30;25.40;99.90
14471;DHT22;7321;50.802;4.336;2022-09-03T09:55:15;25.60;99.90
14471;DHT22;7321;50.802;4.336;2022-09-03T09:57:42;25.70;99.90
14471;DHT22;7321;50.802;4.336;2022-09-03T10:00:13;25.70;99.90
14471;DHT22;7321;50.802;4.336;2022-09-03T10:02:48;25.70;99.90
14471;DHT22;7321;50.802;4.336;2022-09-03T10:05:30;25.90;99.90
14471;DHT22;7321;50.802;4.336;2022-09-03T10:08:03;26.00;99.90
14471;DHT22;7321;50.802;4.336;2022-09-03T10:10:43;26.30;99.90
14471;DHT22;7321;50.802;4.336;2022-09-03T10:15:49;26.60;99.90
14471;DHT22;7321;50.802;4.336;2022-09-03T10:18:38;26.80;99.90
14471;DHT22;7321;50.802;4.336;2022-09-03T10:26:51;27.50;99.90
14471;DHT22;7321;50.802;4.336;2022-09-03T10:29:20;27.60;99.90
14471;DHT22;7321;50.802;4.336;2022-09-03T10:34:48;27.70;99.90
14471;DHT22;7321;50.802;4.336;2022-09-03T10:38:14;27.80;99.90
14471;DHT22;7321;50.802;4.336;2022-09-03T10:40:43;27.80;99.90
14471;DHT22;7321;50.802;4.336;2022-09-03T10:46:28;28.00;99.90
14471;DHT22;7321;50.802;4.336;2022-09-03T10:51:44;27.90;99.90
14471;DHT22;7321;50.802;4.336;2022-09-03T10:54:30;28.10;99.90
14471;DHT22;7321;50.802;4.336;2022-09-03T10:57:20;28.40;99.90
14471;DHT22;7321;50.802;4.336;2022-09-03T11:00:11;28.30;99.90
14471;DHT22;7321;50.802;4.336;2022-09-03T11:05:57;28.40;99.90
14471;DHT22;7321;50.802;4.336;2022-09-03T11:08:36;28.30;99.90
14471;DHT22;7321;50.802;4.336;2022-09-03T11:11:15;28.40;99.90
14471;DHT22;7321;50.802;4.336;2022-09-03T11:14:07;28.30;99.90
14471;DHT22;7321;50.802;4.336;2022-09-03T11:16:57;28.20;99.90
14471;DHT22;7321;50.802;4.336;2022-09-03T11:19:36;28.10;99.90
14471;DHT22;7321;50.802;4.336;2022-09-03T11:22:06;28.00;99.90
14471;DHT22;7321;50.802;4.336;2022-09-03T11:24:34;27.90;99.90
14471;DHT22;7321;50.802;4.336;2022-09-03T11:27:41;27.90;99.90
14471;DHT22;7321;50.802;4.336;2022-09-03T11:30:14;27.80;99.90
14471;DHT22;7321;50.802;4.336;2022-09-03T11:32:57;27.80;99.90
14471;DHT22;7321;50.802;4.336;2022-09-03T11:35:38;27.90;99.90
14471;DHT22;7321;50.802;4.336;2022-09-03T11:38:25;28.00;99.90
14471;DHT22;7321;50.802;4.336;2022-09-03T11:43:27;28.00;99.90
14471;DHT22;7321;50.802;4.336;2022-09-03T11:48:47;28.10;99.90
14471;DHT22;7321;50.802;4.336;2022-09-03T11:51:34;28.00;99.90
14471;DHT22;7321;50.802;4.336;2022-09-03T11:54:05;28.00;99.90
14471;DHT22;7321;50.802;4.336;2022-09-03T11:56:33;27.90;99.90
14471;DHT22;7321;50.802;4.336;2022-09-03T12:01:57;27.80;99.90
14471;DHT22;7321;50.802;4.336;2022-09-03T12:05:01;27.60;99.90
14471;DHT22;7321;50.802;4.336;2022-09-03T12:07:37;27.60;99.90
14471;DHT22;7321;50.802;4.336;2022-09-03T12:12:58;28.10;99.90
14471;DHT22;7321;50.802;4.336;2022-09-03T12:18:32;28.40;99.90
14471;DHT22;7321;50.802;4.336;2022-09-03T12:21:04;28.60;99.90
14471;DHT22;7321;50.802;4.336;2022-09-03T12:23:47;28.70;99.90
14471;DHT22;7321;50.802;4.336;2022-09-03T12:26:20;28.80;99.90
14471;DHT22;7321;50.802;4.336;2022-09-03T12:28:53;28.90;99.90
14471;DHT22;7321;50.802;4.336;2022-09-03T12:31:31;29.00;99.90
14471;DHT22;7321;50.802;4.336;2022-09-03T12:34:13;29.00;99.90
14471;DHT22;7321;50.802;4.336;2022-09-03T12:36:45;29.20;99.90
14471;DHT22;7321;50.802;4.336;2022-09-03T12:39:29;29.40;99.90
14471;DHT22;7321;50.802;4.336;2022-09-03T12:42:07;29.40;99.90
14471;DHT22;7321;50.802;4.336;2022-09-03T12:47:26;29.50;99.90
14471;DHT22;7321;50.802;4.336;2022-09-03T12:49:56;29.50;99.90
14471;DHT22;7321;50.802;4.336;2022-09-03T12:57:39;29.50;99.90
14471;DHT22;7321;50.802;4.336;2022-09-03T13:00:11;29.60;99.90
14471;DHT22;7321;50.802;4.336;2022-09-03T13:06:02;29.50;99.90
14471;DHT22;7321;50.802;4.336;2022-09-03T13:08:14;29.60;99.90
14471;DHT22;7321;50.802;4.336;2022-09-03T13:10:42;29.70;99.90
14471;DHT22;7321;50.802;4.336;2022-09-03T13:13:26;29.40;99.90
14471;DHT22;7321;50.802;4.336;2022-09-03T13:16:23;29.50;99.90
14471;DHT22;7321;50.802;4.336;2022-09-03T13:30:14;29.50;99.90
14471;DHT22;7321;50.802;4.336;2022-09-03T13:37:54;30.00;99.90
14471;DHT22;7321;50.802;4.336;2022-09-03T13:40:26;29.60;99.90
14471;DHT22;7321;50.802;4.336;2022-09-03T13:46:26;29.40;99.90
14471;DHT22;7321;50.802;4.336;2022-09-03T13:49:12;29.40;99.90
14471;DHT22;7321;50.802;4.336;2022-09-03T13:52:01;29.10;99.90
14471;DHT22;7321;50.802;4.336;2022-09-03T13:54:33;29.20;99.90
14471;DHT22;7321;50.802;4.336;2022-09-03T13:57:04;29.10;99.90
14471;DHT22;7321;50.802;4.336;2022-09-03T13:59:53;29.10;99.90
14471;DHT22;7321;50.802;4.336;2022-09-03T14:02:57;29.00;99.90
14471;DHT22;7321;50.802;4.336;2022-09-03T14:10:55;28.90;99.90
14471;DHT22;7321;50.802;4.336;2022-09-03T14:16:12;29.10;99.90
14471;DHT22;7321;50.802;4.336;2022-09-03T14:18:54;29.10;99.90
14471;DHT22;7321;50.802;4.336;2022-09-03T14:26:36;28.50;99.90
14471;DHT22;7321;50.802;4.336;2022-09-03T14:35:02;28.60;99.90
14471;DHT22;7321;50.802;4.336;2022-09-03T14:52:32;28.60;99.90
14471;DHT22;7321;50.802;4.336;2022-09-03T14:55:17;28.60;99.90
14471;DHT22;7321;50.802;4.336;2022-09-03T14:58:19;28.80;99.90
14471;DHT22;7321;50.802;4.336;2022-09-03T15:01:09;28.80;99.90
14471;DHT22;7321;50.802;4.336;2022-09-03T15:09:20;28.80;99.90
14471;DHT22;7321;50.802;4.336;2022-09-03T15:12:00;28.90;99.90
14471;DHT22;7321;50.802;4.336;2022-09-03T15:14:49;28.50;99.90
14471;DHT22;7321;50.802;4.336;2022-09-03T15:17:32;28.30;99.90
14471;DHT22;7321;50.802;4.336;2022-09-03T15:20:46;28.30;99.90
14471;DHT22;7321;50.802;4.336;2022-09-03T15:26:27;27.90;99.90
14471;DHT22;7321;50.802;4.336;2022-09-03T15:29:05;27.60;99.90
14471;DHT22;7321;50.802;4.336;2022-09-03T15:34:47;27.00;99.90
14471;DHT22;7321;50.802;4.336;2022-09-03T15:40:09;25.80;99.90
14471;DHT22;7321;50.802;4.336;2022-09-03T15:42:41;25.50;99.90
14471;DHT22;7321;50.802;4.336;2022-09-03T15:45:30;25.30;99.90
14471;DHT22;7321;50.802;4.336;2022-09-03T15:51:16;25.00;99.90
14471;DHT22;7321;50.802;4.336;2022-09-03T15:59:41;24.90;99.90
14471;DHT22;7321;50.802;4.336;2022-09-03T16:02:15;24.90;99.90
14471;DHT22;7321;50.802;4.336;2022-09-03T16:07:29;25.00;99.90
14471;DHT22;7321;50.802;4.336;2022-09-03T16:12:58;25.30;99.90
14471;DHT22;7321;50.802;4.336;2022-09-03T16:15:39;25.40;99.90
14471;DHT22;7321;50.802;4.336;2022-09-03T16:21:06;25.40;99.90
14471;DHT22;7321;50.802;4.336;2022-09-03T16:23:46;25.40;99.90
14471;DHT22;7321;50.802;4.336;2022-09-03T16:28:52;25.70;99.90
14471;DHT22;7321;50.802;4.336;2022-09-03T16:39:39;25.90;99.90
14471;DHT22;7321;50.802;4.336;2022-09-03T16:42:33;26.00;99.90
14471;DHT22;7321;50.802;4.336;2022-09-03T16:45:19;26.00;99.90
14471;DHT22;7321;50.802;4.336;2022-09-03T16:48:14;26.10;99.90
14471;DHT22;7321;50.802;4.336;2022-09-03T16:59:57;25.90;99.90
14471;DHT22;7321;50.802;4.336;2022-09-03T17:02:37;25.90;99.90
14471;DHT22;7321;50.802;4.336;2022-09-03T17:10:51;25.70;99.90
14471;DHT22;7321;50.802;4.336;2022-09-03T17:15:54;25.50;99.90
14471;DHT22;7321;50.802;4.336;2022-09-03T17:21:29;24.90;99.90
14471;DHT22;7321;50.802;4.336;2022-09-03T17:24:01;24.70;99.90
14471;DHT22;7321;50.802;4.336;2022-09-03T17:32:20;24.80;99.90
14471;DHT22;7321;50.802;4.336;2022-09-03T17:45:36;24.40;99.90
14471;DHT22;7321;50.802;4.336;2022-09-03T17:52:00;24.20;99.90
14471;DHT22;7321;50.802;4.336;2022-09-03T17:54:55;24.30;99.90
14471;DHT22;7321;50.802;4.336;2022-09-03T17:57:29;24.30;99.90
14471;DHT22;7321;50.802;4.336;2022-09-03T18:00:03;24.10;99.90
14471;DHT22;7321;50.802;4.336;2022-09-03T18:02:38;24.00;99.90
14471;DHT22;7321;50.802;4.336;2022-09-03T18:07:53;24.00;99.90
14471;DHT22;7321;50.802;4.336;2022-09-03T18:13:24;23.70;99.90
14471;DHT22;7321;50.802;4.336;2022-09-03T18:16:04;23.60;99.90
14471;DHT22;7321;50.802;4.336;2022-09-03T18:18:33;23.50;99.90
14471;DHT22;7321;50.802;4.336;2022-09-03T18:21:07;23.50;99.90
14471;DHT22;7321;50.802;4.336;2022-09-03T18:24:24;23.60;99.90
14471;DHT22;7321;50.802;4.336;2022-09-03T18:27:33;23.60;99.90
14471;DHT22;7321;50.802;4.336;2022-09-03T18:30:19;23.50;99.90
14471;DHT22;7321;50.802;4.336;2022-09-03T18:33:03;23.50;99.90
14471;DHT22;7321;50.802;4.336;2022-09-03T18:35:48;23.50;99.90
14471;DHT22;7321;50.802;4.336;2022-09-03T18:38:38;23.50;99.90
14471;DHT22;7321;50.802;4.336;2022-09-03T18:47:43;23.50;99.90
14471;DHT22;7321;50.802;4.336;2022-09-03T18:50:48;23.60;99.90
14471;DHT22;7321;50.802;4.336;2022-09-03T18:56:44;23.70;99.90
14471;DHT22;7321;50.802;4.336;2022-09-03T19:02:54;23.70;99.90
14471;DHT22;7321;50.802;4.336;2022-09-03T19:06:04;23.70;99.90
14471;DHT22;7321;50.802;4.336;2022-09-03T19:09:28;23.60;99.90
14471;DHT22;7321;50.802;4.336;2022-09-03T19:19:49;23.30;99.90
14471;DHT22;7321;50.802;4.336;2022-09-03T19:22:09;23.20;99.90
14471;DHT22;7321;50.802;4.336;2022-09-03T19:25:03;23.20;99.90
14471;DHT22;7321;50.802;4.336;2022-09-03T19:27:50;23.20;99.90
14471;DHT22;7321;50.802;4.336;2022-09-03T19:30:55;23.20;99.90
14471;DHT22;7321;50.802;4.336;2022-09-03T19:34:12;23.10;99.90
14471;DHT22;7321;50.802;4.336;2022-09-03T19:38:16;23.10;99.90
14471;DHT22;7321;50.802;4.336;2022-09-03T19:40:56;23.00;99.90
14471;DHT22;7321;50.802;4.336;2022-09-03T19:47:02;22.90;99.90
14471;DHT22;7321;50.802;4.336;2022-09-03T19:50:02;22.80;99.90
14471;DHT22;7321;50.802;4.336;2022-09-03T19:53:03;22.70;99.90
14471;DHT22;7321;50.802;4.336;2022-09-03T19:55:54;22.60;99.90
14471;DHT22;7321;50.802;4.336;2022-09-03T19:58:46;22.50;99.90
14471;DHT22;7321;50.802;4.336;2022-09-03T20:01:36;22.30;99.90
14471;DHT22;7321;50.802;4.336;2022-09-03T20:04:36;22.30;99.90
14471;DHT22;7321;50.802;4.336;2022-09-03T20:07:22;22.20;99.90
14471;DHT22;7321;50.802;4.336;2022-09-03T20:10:11;22.20;99.90
14471;DHT22;7321;50.802;4.336;2022-09-03T20:13:12;22.30;99.90
14471;DHT22;7321;50.802;4.336;2022-09-03T20:15:59;22.20;99.90
14471;DHT22;7321;50.802;4.336;2022-09-03T20:23:54;22.00;99.90
14471;DHT22;7321;50.802;4.336;2022-09-03T20:38:09;21.70;99.90
14471;DHT22;7321;50.802;4.336;2022-09-03T20:43:31;21.70;99.90
14471;DHT22;7321;50.802;4.336;2022-09-03T20:46:25;21.70;99.90
14471;DHT22;7321;50.802;4.336;2022-09-03T20:51:42;21.80;99.90
14471;DHT22;7321;50.802;4.336;2022-09-03T20:54:19;21.70;99.90
14471;DHT22;7321;50.802;4.336;2022-09-03T20:57:07;21.70;99.90
14471;DHT22;7321;50.802;4.336;2022-09-03T21:00:00;21.70;99.90
14471;DHT22;7321;50.802;4.336;2022-09-03T21:05:57;21.50;99.90
14471;DHT22;7321;50.802;4.336;2022-09-03T21:25:16;21.50;99.90
14471;DHT22;7321;50.802;4.336;2022-09-03T21:27:48;21.60;99.90
14471;DHT22;7321;50.802;4.336;2022-09-03T21:30:18;21.40;99.90
14471;DHT22;7321;50.802;4.336;2022-09-03T21:32:58;21.30;99.90
14471;DHT22;7321;50.802;4.336;2022-09-03T21:35:33;21.20;99.90
14471;DHT22;7321;50.802;4.336;2022-09-03T21:38:07;21.30;99.90
14471;DHT22;7321;50.802;4.336;2022-09-03T21:40:41;21.30;99.90
14471;DHT22;7321;50.802;4.336;2022-09-03T21:43:18;21.30;99.90
14471;DHT22;7321;50.802;4.336;2022-09-03T21:46:07;21.40;99.90
14471;DHT22;7321;50.802;4.336;2022-09-03T21:48:58;21.50;99.90
14471;DHT22;7321;50.802;4.336;2022-09-03T21:51:32;21.30;99.90
14471;DHT22;7321;50.802;4.336;2022-09-03T21:54:05;21.30;99.90
14471;DHT22;7321;50.802;4.336;2022-09-03T22:04:28;21.10;99.90
14471;DHT22;7321;50.802;4.336;2022-09-03T22:15:27;21.10;99.90
14471;DHT22;7321;50.802;4.336;2022-09-03T22:18:00;21.10;99.90
14471;DHT22;7321;50.802;4.336;2022-09-03T22:20:29;21.00;99.90
14471;DHT22;7321;50.802;4.336;2022-09-03T22:23:17;21.10;99.90
14471;DHT22;7321;50.802;4.336;2022-09-03T22:26:00;21.10;99.90
14471;DHT22;7321;50.802;4.336;2022-09-03T22:28:37;21.10;99.90
14471;DHT22;7321;50.802;4.336;2022-09-03T22:31:15;21.10;99.90
14471;DHT22;7321;50.802;4.336;2022-09-03T22:36:38;21.20;99.90
14471;DHT22;7321;50.802;4.336;2022-09-03T22:39:20;21.20;99.90